createdAt,value
2019-06-26T00:00:59.138Z,23.90
2019-06-26T00:03:29.782Z,23.90
2019-06-26T00:06:01.136Z,23.90
2019-06-26T00:08:31.974Z,23.90
2019-06-26T00:11:02.799Z,23.80
2019-06-26T00:13:33.552Z,23.80
2019-06-26T00:16:04.729Z,23.80
2019-06-26T00:18:35.420Z,23.70
2019-06-26T00:21:06.096Z,23.70
2019-06-26T11:20:26.466Z,23.60
2019-06-26T11:22:57.250Z,37.00
2019-06-26T11:25:29.000Z,36.50
2019-06-26T11:27:59.734Z,36.80
2019-06-26T11:30:30.653Z,37.40
2019-06-26T11:33:01.429Z,37.30
2019-06-26T11:35:32.141Z,37.60
2019-06-26T11:38:02.990Z,37.30
2019-06-26T11:40:33.902Z,37.50
2019-06-26T11:43:04.612Z,38.00
2019-06-26T11:45:35.390Z,37.80
2019-06-26T11:48:06.379Z,37.60
2019-06-26T11:50:37.033Z,37.60
2019-06-26T11:53:07.752Z,37.90
2019-06-26T11:55:38.607Z,38.10
2019-06-26T11:58:09.324Z,37.90
2019-06-26T12:00:41.794Z,37.70
2019-06-26T12:03:13.414Z,37.60
2019-06-26T12:05:46.032Z,37.90
2019-06-26T12:08:18.484Z,37.90
2019-06-26T12:10:49.474Z,38.30
2019-06-26T12:13:20.159Z,38.30
2019-06-26T12:15:51.240Z,38.50
2019-06-26T12:18:21.931Z,38.70
2019-06-26T12:20:52.769Z,38.60
2019-06-26T12:23:23.493Z,38.50
2019-06-26T12:25:54.196Z,38.60
2019-06-26T12:28:25.473Z,38.60
2019-06-26T12:30:56.406Z,38.50
2019-06-26T12:33:27.173Z,38.90
2019-06-26T12:35:57.911Z,38.70
2019-06-26T12:38:28.577Z,38.90
2019-06-26T12:40:59.288Z,38.90
2019-06-26T12:43:30.392Z,39.20
2019-06-26T12:46:01.106Z,39.00
2019-06-26T12:48:31.918Z,39.20
2019-06-26T12:51:02.595Z,39.20
2019-06-26T12:53:33.608Z,39.00
2019-06-26T12:56:04.386Z,39.00
2019-06-26T12:58:35.259Z,39.40
2019-06-26T13:01:06.030Z,39.40
2019-06-26T13:03:36.997Z,39.70
2019-06-26T13:06:08.033Z,39.70
2019-06-26T13:08:39.786Z,39.20
2019-06-26T13:11:10.829Z,38.60
2019-06-26T13:13:41.773Z,39.30
2019-06-26T13:16:12.947Z,39.80
2019-06-26T13:18:44.862Z,39.50
2019-06-26T13:21:15.589Z,39.80
2019-06-26T13:23:46.963Z,39.60
2019-06-26T13:26:17.667Z,39.40
2019-06-26T13:28:49.282Z,39.70
2019-06-26T13:31:22.411Z,39.60
2019-06-26T13:33:53.148Z,40.20
2019-06-26T13:36:23.893Z,40.20
2019-06-26T13:38:54.540Z,40.90
2019-06-26T13:41:25.323Z,41.30
2019-06-26T13:43:56.003Z,41.00
2019-06-26T13:46:27.365Z,39.90
2019-06-26T13:48:58.607Z,39.90
2019-06-26T13:51:29.545Z,39.90
2019-06-26T13:54:00.247Z,40.00
2019-06-26T13:56:30.910Z,40.40
2019-06-26T13:59:01.604Z,41.10
2019-06-26T14:01:50.052Z,41.20
2019-06-26T14:04:20.729Z,40.80
2019-06-26T14:06:51.482Z,40.20
2019-06-26T14:09:22.242Z,40.50
2019-06-26T14:11:53.940Z,40.30
2019-06-26T14:14:40.959Z,40.20
2019-06-26T14:16:57.177Z,39.90
2019-06-26T14:19:29.492Z,39.90
2019-06-26T14:22:00.157Z,40.20
2019-06-26T14:24:30.844Z,39.50
2019-06-26T14:27:01.531Z,38.90
2019-06-26T14:29:33.859Z,39.50
2019-06-26T14:32:04.590Z,39.90
2019-06-26T14:34:35.327Z,39.90
2019-06-26T14:37:05.979Z,40.20
2019-06-26T14:39:36.668Z,40.30
2019-06-26T14:42:07.357Z,40.20
2019-06-26T14:44:40.934Z,40.20
2019-06-26T14:47:11.785Z,40.50
2019-06-26T14:49:42.421Z,40.80
2019-06-26T14:52:13.114Z,39.80
2019-06-26T14:54:44.686Z,39.10
2019-06-26T14:57:15.434Z,38.40
2019-06-26T14:59:46.189Z,38.10
2019-06-26T15:02:16.889Z,38.30
2019-06-26T15:04:47.570Z,38.90
2019-06-26T15:07:18.253Z,39.50
2019-06-26T15:09:49.145Z,40.20
2019-06-26T15:12:19.835Z,39.90
2019-06-26T15:14:50.933Z,39.90
2019-06-26T15:17:21.622Z,39.70
2019-06-26T15:19:53.191Z,39.00
2019-06-26T15:22:23.885Z,38.80
2019-06-26T15:24:55.475Z,38.60
2019-06-26T15:27:26.534Z,38.50
2019-06-26T15:29:57.456Z,38.30
2019-06-26T15:32:28.270Z,38.30
2019-06-26T15:34:59.002Z,38.40
2019-06-26T15:37:30.443Z,38.60
2019-06-26T15:40:01.214Z,38.50
2019-06-26T15:42:31.932Z,38.30
